sensor_id;sensor_type;location;lat;lon;timestamp;P1;durP1;ratioP1;P2;durP2;ratioP2
7398;SDS011;3740;50.700;7.184;2023-04-06T00:01:02;9.00;;;8.10;;
7398;SDS011;3740;50.700;7.184;2023-04-06T00:03:27;10.43;;;8.37;;
7398;SDS011;3740;50.700;7.184;2023-04-06T00:05:53;8.77;;;7.50;;
7398;SDS011;3740;50.700;7.184;2023-04-06T00:08:18;8.70;;;7.80;;
7398;SDS011;3740;50.700;7.184;2023-04-06T00:10:46;7.50;;;6.80;;
7398;SDS011;3740;50.700;7.184;2023-04-06T00:13:12;8.93;;;7.47;;
7398;SDS011;3740;50.700;7.184;2023-04-06T00:15:37;9.60;;;7.33;;
7398;SDS011;3740;50.700;7.184;2023-04-06T00:18:03;8.60;;;7.43;;
7398;SDS011;3740;50.700;7.184;2023-04-06T00:20:28;8.80;;;7.47;;
7398;SDS011;3740;50.700;7.184;2023-04-06T00:22:54;8.50;;;7.60;;
7398;SDS011;3740;50.700;7.184;2023-04-06T00:25:20;8.40;;;7.60;;
7398;SDS011;3740;50.700;7.184;2023-04-06T00:27:45;9.00;;;7.60;;
7398;SDS011;3740;50.700;7.184;2023-04-06T00:30:11;10.27;;;7.30;;
7398;SDS011;3740;50.700;7.184;2023-04-06T00:32:36;8.30;;;7.50;;
7398;SDS011;3740;50.700;7.184;2023-04-06T00:35:02;8.33;;;7.30;;
7398;SDS011;3740;50.700;7.184;2023-04-06T00:37:28;8.73;;;7.30;;
7398;SDS011;3740;50.700;7.184;2023-04-06T00:39:54;8.47;;;7.70;;
7398;SDS011;3740;50.700;7.184;2023-04-06T00:42:20;8.43;;;7.53;;
7398;SDS011;3740;50.700;7.184;2023-04-06T00:44:58;8.53;;;7.33;;
7398;SDS011;3740;50.700;7.184;2023-04-06T00:47:24;8.00;;;7.20;;
7398;SDS011;3740;50.700;7.184;2023-04-06T00:49:51;8.10;;;7.30;;
7398;SDS011;3740;50.700;7.184;2023-04-06T00:52:17;8.67;;;7.20;;
7398;SDS011;3740;50.700;7.184;2023-04-06T00:54:43;7.77;;;7.03;;
7398;SDS011;3740;50.700;7.184;2023-04-06T00:57:10;9.03;;;7.13;;
7398;SDS011;3740;50.700;7.184;2023-04-06T00:59:38;8.03;;;7.17;;
7398;SDS011;3740;50.700;7.184;2023-04-06T01:02:05;7.87;;;7.10;;
7398;SDS011;3740;50.700;7.184;2023-04-06T01:04:31;9.03;;;7.00;;
7398;SDS011;3740;50.700;7.184;2023-04-06T01:06:57;8.27;;;6.93;;
7398;SDS011;3740;50.700;7.184;2023-04-06T01:09:23;7.47;;;6.77;;
7398;SDS011;3740;50.700;7.184;2023-04-06T01:11:48;8.27;;;7.00;;
7398;SDS011;3740;50.700;7.184;2023-04-06T01:14:14;7.37;;;6.63;;
7398;SDS011;3740;50.700;7.184;2023-04-06T01:16:40;8.77;;;7.33;;
7398;SDS011;3740;50.700;7.184;2023-04-06T01:19:07;9.23;;;6.80;;
7398;SDS011;3740;50.700;7.184;2023-04-06T01:21:34;7.40;;;6.50;;
7398;SDS011;3740;50.700;7.184;2023-04-06T01:24:00;7.50;;;6.80;;
7398;SDS011;3740;50.700;7.184;2023-04-06T01:26:26;7.50;;;6.80;;
7398;SDS011;3740;50.700;7.184;2023-04-06T01:28:52;8.70;;;7.00;;
7398;SDS011;3740;50.700;7.184;2023-04-06T01:31:18;7.83;;;7.07;;
7398;SDS011;3740;50.700;7.184;2023-04-06T01:33:43;8.73;;;7.10;;
7398;SDS011;3740;50.700;7.184;2023-04-06T01:36:09;8.53;;;7.70;;
7398;SDS011;3740;50.700;7.184;2023-04-06T01:38:34;8.97;;;7.23;;
7398;SDS011;3740;50.700;7.184;2023-04-06T01:41:00;8.57;;;7.73;;
7398;SDS011;3740;50.700;7.184;2023-04-06T01:43:26;8.87;;;7.97;;
7398;SDS011;3740;50.700;7.184;2023-04-06T01:45:51;8.73;;;7.80;;
7398;SDS011;3740;50.700;7.184;2023-04-06T01:48:17;8.77;;;7.97;;
7398;SDS011;3740;50.700;7.184;2023-04-06T01:50:42;9.40;;;8.00;;
7398;SDS011;3740;50.700;7.184;2023-04-06T01:53:08;9.13;;;7.97;;
7398;SDS011;3740;50.700;7.184;2023-04-06T01:55:33;8.97;;;8.17;;
7398;SDS011;3740;50.700;7.184;2023-04-06T01:57:59;8.73;;;7.60;;
7398;SDS011;3740;50.700;7.184;2023-04-06T02:00:25;8.57;;;7.77;;
7398;SDS011;3740;50.700;7.184;2023-04-06T02:02:50;7.93;;;7.23;;
7398;SDS011;3740;50.700;7.184;2023-04-06T02:05:16;8.63;;;7.83;;
7398;SDS011;3740;50.700;7.184;2023-04-06T02:07:41;9.13;;;7.70;;
7398;SDS011;3740;50.700;7.184;2023-04-06T02:10:10;9.00;;;8.10;;
7398;SDS011;3740;50.700;7.184;2023-04-06T02:12:37;8.57;;;7.70;;
7398;SDS011;3740;50.700;7.184;2023-04-06T02:15:02;8.70;;;7.83;;
7398;SDS011;3740;50.700;7.184;2023-04-06T02:17:28;9.27;;;8.30;;
7398;SDS011;3740;50.700;7.184;2023-04-06T02:19:54;8.73;;;7.90;;
7398;SDS011;3740;50.700;7.184;2023-04-06T02:22:19;8.80;;;7.90;;
7398;SDS011;3740;50.700;7.184;2023-04-06T02:24:45;10.30;;;8.73;;
7398;SDS011;3740;50.700;7.184;2023-04-06T02:27:11;11.37;;;8.57;;
7398;SDS011;3740;50.700;7.184;2023-04-06T02:29:39;9.77;;;8.77;;
7398;SDS011;3740;50.700;7.184;2023-04-06T02:32:04;9.00;;;8.10;;
7398;SDS011;3740;50.700;7.184;2023-04-06T02:34:30;9.67;;;8.37;;
7398;SDS011;3740;50.700;7.184;2023-04-06T02:36:56;9.83;;;8.87;;
7398;SDS011;3740;50.700;7.184;2023-04-06T02:39:21;8.90;;;8.00;;
7398;SDS011;3740;50.700;7.184;2023-04-06T02:41:47;10.07;;;9.07;;
7398;SDS011;3740;50.700;7.184;2023-04-06T02:44:13;11.30;;;9.00;;
7398;SDS011;3740;50.700;7.184;2023-04-06T02:46:38;9.53;;;8.47;;
7398;SDS011;3740;50.700;7.184;2023-04-06T02:49:04;9.57;;;8.53;;
7398;SDS011;3740;50.700;7.184;2023-04-06T02:51:30;11.10;;;8.63;;
7398;SDS011;3740;50.700;7.184;2023-04-06T02:53:55;9.93;;;8.93;;
7398;SDS011;3740;50.700;7.184;2023-04-06T02:56:21;10.00;;;8.97;;
7398;SDS011;3740;50.700;7.184;2023-04-06T02:58:46;9.97;;;8.97;;
7398;SDS011;3740;50.700;7.184;2023-04-06T03:01:12;10.50;;;8.83;;
7398;SDS011;3740;50.700;7.184;2023-04-06T03:03:38;9.93;;;8.87;;
7398;SDS011;3740;50.700;7.184;2023-04-06T03:06:03;10.03;;;8.93;;
7398;SDS011;3740;50.700;7.184;2023-04-06T03:08:29;9.70;;;8.80;;
7398;SDS011;3740;50.700;7.184;2023-04-06T03:10:55;9.67;;;8.67;;
7398;SDS011;3740;50.700;7.184;2023-04-06T03:13:21;8.97;;;8.07;;
7398;SDS011;3740;50.700;7.184;2023-04-06T03:15:46;9.30;;;8.30;;
7398;SDS011;3740;50.700;7.184;2023-04-06T03:18:12;8.77;;;7.93;;
7398;SDS011;3740;50.700;7.184;2023-04-06T03:20:37;9.97;;;9.03;;
7398;SDS011;3740;50.700;7.184;2023-04-06T03:23:03;9.30;;;8.40;;
7398;SDS011;3740;50.700;7.184;2023-04-06T03:25:28;9.30;;;8.30;;
7398;SDS011;3740;50.700;7.184;2023-04-06T03:27:55;10.10;;;9.03;;
7398;SDS011;3740;50.700;7.184;2023-04-06T03:30:21;10.17;;;8.87;;
7398;SDS011;3740;50.700;7.184;2023-04-06T03:32:46;11.07;;;8.70;;
7398;SDS011;3740;50.700;7.184;2023-04-06T03:35:12;11.00;;;9.90;;
7398;SDS011;3740;50.700;7.184;2023-04-06T03:37:37;11.13;;;9.17;;
7398;SDS011;3740;50.700;7.184;2023-04-06T03:40:04;11.23;;;10.00;;
7398;SDS011;3740;50.700;7.184;2023-04-06T03:42:30;11.93;;;9.57;;
7398;SDS011;3740;50.700;7.184;2023-04-06T03:44:57;10.23;;;9.23;;
7398;SDS011;3740;50.700;7.184;2023-04-06T03:47:23;9.97;;;8.97;;
7398;SDS011;3740;50.700;7.184;2023-04-06T03:49:48;11.60;;;10.50;;
7398;SDS011;3740;50.700;7.184;2023-04-06T03:52:14;10.97;;;9.87;;
7398;SDS011;3740;50.700;7.184;2023-04-06T03:54:39;10.93;;;9.90;;
7398;SDS011;3740;50.700;7.184;2023-04-06T03:57:05;11.10;;;10.00;;
7398;SDS011;3740;50.700;7.184;2023-04-06T03:59:30;11.30;;;9.83;;
7398;SDS011;3740;50.700;7.184;2023-04-06T04:01:56;11.20;;;9.60;;
7398;SDS011;3740;50.700;7.184;2023-04-06T04:04:22;11.60;;;10.07;;
7398;SDS011;3740;50.700;7.184;2023-04-06T04:06:47;9.90;;;8.93;;
7398;SDS011;3740;50.700;7.184;2023-04-06T04:09:13;10.73;;;9.43;;
7398;SDS011;3740;50.700;7.184;2023-04-06T04:11:38;10.27;;;9.17;;
7398;SDS011;3740;50.700;7.184;2023-04-06T04:14:04;10.50;;;9.50;;
7398;SDS011;3740;50.700;7.184;2023-04-06T04:16:30;10.47;;;9.43;;
7398;SDS011;3740;50.700;7.184;2023-04-06T04:18:55;10.03;;;9.03;;
7398;SDS011;3740;50.700;7.184;2023-04-06T04:21:23;10.33;;;9.37;;
7398;SDS011;3740;50.700;7.184;2023-04-06T04:23:48;10.93;;;9.50;;
7398;SDS011;3740;50.700;7.184;2023-04-06T04:26:14;11.77;;;9.90;;
7398;SDS011;3740;50.700;7.184;2023-04-06T04:28:40;10.13;;;9.20;;
7398;SDS011;3740;50.700;7.184;2023-04-06T04:31:05;10.47;;;9.40;;
7398;SDS011;3740;50.700;7.184;2023-04-06T04:33:31;10.67;;;9.57;;
7398;SDS011;3740;50.700;7.184;2023-04-06T04:35:56;10.93;;;9.83;;
7398;SDS011;3740;50.700;7.184;2023-04-06T04:38:22;10.33;;;9.33;;
7398;SDS011;3740;50.700;7.184;2023-04-06T04:40:47;10.60;;;9.27;;
7398;SDS011;3740;50.700;7.184;2023-04-06T04:43:13;12.37;;;9.87;;
7398;SDS011;3740;50.700;7.184;2023-04-06T04:45:39;10.93;;;9.53;;
7398;SDS011;3740;50.700;7.184;2023-04-06T04:48:04;10.33;;;9.43;;
7398;SDS011;3740;50.700;7.184;2023-04-06T04:50:30;10.73;;;9.60;;
7398;SDS011;3740;50.700;7.184;2023-04-06T04:52:56;12.37;;;9.90;;
7398;SDS011;3740;50.700;7.184;2023-04-06T04:55:22;10.97;;;9.80;;
7398;SDS011;3740;50.700;7.184;2023-04-06T04:57:47;11.50;;;10.07;;
7398;SDS011;3740;50.700;7.184;2023-04-06T05:00:13;12.17;;;9.87;;
7398;SDS011;3740;50.700;7.184;2023-04-06T05:02:39;11.90;;;10.70;;
7398;SDS011;3740;50.700;7.184;2023-04-06T05:05:05;11.20;;;10.07;;
7398;SDS011;3740;50.700;7.184;2023-04-06T05:07:30;10.93;;;9.80;;
7398;SDS011;3740;50.700;7.184;2023-04-06T05:09:56;11.70;;;10.50;;
7398;SDS011;3740;50.700;7.184;2023-04-06T05:12:22;12.37;;;10.63;;
7398;SDS011;3740;50.700;7.184;2023-04-06T05:14:47;13.17;;;10.67;;
7398;SDS011;3740;50.700;7.184;2023-04-06T05:17:13;12.37;;;9.97;;
7398;SDS011;3740;50.700;7.184;2023-04-06T05:19:38;13.53;;;10.80;;
7398;SDS011;3740;50.700;7.184;2023-04-06T05:22:04;11.47;;;10.27;;
7398;SDS011;3740;50.700;7.184;2023-04-06T05:24:29;11.67;;;10.47;;
7398;SDS011;3740;50.700;7.184;2023-04-06T05:26:55;11.37;;;10.00;;
7398;SDS011;3740;50.700;7.184;2023-04-06T05:29:21;10.73;;;9.33;;
7398;SDS011;3740;50.700;7.184;2023-04-06T05:31:46;14.37;;;10.20;;
7398;SDS011;3740;50.700;7.184;2023-04-06T05:34:12;13.23;;;11.13;;
7398;SDS011;3740;50.700;7.184;2023-04-06T05:36:38;14.73;;;11.57;;
7398;SDS011;3740;50.700;7.184;2023-04-06T05:39:05;11.67;;;10.43;;
7398;SDS011;3740;50.700;7.184;2023-04-06T05:41:31;12.47;;;11.17;;
7398;SDS011;3740;50.700;7.184;2023-04-06T05:43:56;14.60;;;10.73;;
7398;SDS011;3740;50.700;7.184;2023-04-06T05:46:22;12.30;;;11.00;;
7398;SDS011;3740;50.700;7.184;2023-04-06T05:48:47;12.07;;;10.83;;
7398;SDS011;3740;50.700;7.184;2023-04-06T05:51:14;15.03;;;11.47;;
7398;SDS011;3740;50.700;7.184;2023-04-06T05:53:39;13.13;;;11.77;;
7398;SDS011;3740;50.700;7.184;2023-04-06T05:56:05;17.03;;;11.40;;
7398;SDS011;3740;50.700;7.184;2023-04-06T05:58:31;11.87;;;9.90;;
7398;SDS011;3740;50.700;7.184;2023-04-06T06:00:57;11.90;;;10.73;;
7398;SDS011;3740;50.700;7.184;2023-04-06T06:03:23;13.43;;;12.00;;
7398;SDS011;3740;50.700;7.184;2023-04-06T06:05:49;12.70;;;11.17;;
7398;SDS011;3740;50.700;7.184;2023-04-06T06:08:15;14.00;;;11.30;;
7398;SDS011;3740;50.700;7.184;2023-04-06T06:10:40;13.03;;;10.97;;
7398;SDS011;3740;50.700;7.184;2023-04-06T06:13:06;12.03;;;10.93;;
7398;SDS011;3740;50.700;7.184;2023-04-06T06:15:31;13.33;;;10.70;;
7398;SDS011;3740;50.700;7.184;2023-04-06T06:17:57;13.23;;;11.67;;
7398;SDS011;3740;50.700;7.184;2023-04-06T06:20:23;12.57;;;11.30;;
7398;SDS011;3740;50.700;7.184;2023-04-06T06:22:48;12.07;;;10.87;;
7398;SDS011;3740;50.700;7.184;2023-04-06T06:25:14;12.83;;;11.53;;
7398;SDS011;3740;50.700;7.184;2023-04-06T06:27:40;13.23;;;11.17;;
7398;SDS011;3740;50.700;7.184;2023-04-06T06:30:07;13.30;;;11.20;;
7398;SDS011;3740;50.700;7.184;2023-04-06T06:32:33;13.70;;;11.10;;
7398;SDS011;3740;50.700;7.184;2023-04-06T06:34:58;12.43;;;11.23;;
7398;SDS011;3740;50.700;7.184;2023-04-06T06:37:24;12.13;;;10.93;;
7398;SDS011;3740;50.700;7.184;2023-04-06T06:39:49;13.47;;;11.07;;
7398;SDS011;3740;50.700;7.184;2023-04-06T06:42:15;11.60;;;10.50;;
7398;SDS011;3740;50.700;7.184;2023-04-06T06:44:41;11.43;;;10.23;;
7398;SDS011;3740;50.700;7.184;2023-04-06T06:47:06;11.30;;;10.03;;
7398;SDS011;3740;50.700;7.184;2023-04-06T06:49:32;10.67;;;9.70;;
7398;SDS011;3740;50.700;7.184;2023-04-06T06:51:57;11.40;;;10.30;;
7398;SDS011;3740;50.700;7.184;2023-04-06T06:54:23;13.80;;;9.93;;
7398;SDS011;3740;50.700;7.184;2023-04-06T06:56:48;10.83;;;9.83;;
7398;SDS011;3740;50.700;7.184;2023-04-06T06:59:14;10.87;;;9.77;;
7398;SDS011;3740;50.700;7.184;2023-04-06T07:01:41;11.47;;;10.27;;
7398;SDS011;3740;50.700;7.184;2023-04-06T07:04:06;10.80;;;9.70;;
7398;SDS011;3740;50.700;7.184;2023-04-06T07:06:34;10.03;;;9.10;;
7398;SDS011;3740;50.700;7.184;2023-04-06T07:09:00;11.07;;;9.97;;
7398;SDS011;3740;50.700;7.184;2023-04-06T07:11:28;11.43;;;10.17;;
7398;SDS011;3740;50.700;7.184;2023-04-06T07:13:53;11.63;;;9.67;;
7398;SDS011;3740;50.700;7.184;2023-04-06T07:16:19;10.50;;;9.40;;
7398;SDS011;3740;50.700;7.184;2023-04-06T07:18:45;9.97;;;8.80;;
7398;SDS011;3740;50.700;7.184;2023-04-06T07:21:10;10.87;;;8.87;;
7398;SDS011;3740;50.700;7.184;2023-04-06T07:23:36;10.20;;;9.20;;
7398;SDS011;3740;50.700;7.184;2023-04-06T07:26:02;9.97;;;8.90;;
7398;SDS011;3740;50.700;7.184;2023-04-06T07:28:27;9.67;;;8.77;;
7398;SDS011;3740;50.700;7.184;2023-04-06T07:30:53;10.30;;;9.00;;
7398;SDS011;3740;50.700;7.184;2023-04-06T07:33:19;11.37;;;9.73;;
7398;SDS011;3740;50.700;7.184;2023-04-06T07:35:45;10.90;;;9.80;;
7398;SDS011;3740;50.700;7.184;2023-04-06T07:38:11;10.83;;;9.43;;
7398;SDS011;3740;50.700;7.184;2023-04-06T07:40:36;10.70;;;9.70;;
7398;SDS011;3740;50.700;7.184;2023-04-06T07:43:02;11.30;;;10.07;;
7398;SDS011;3740;50.700;7.184;2023-04-06T07:45:28;10.83;;;9.37;;
7398;SDS011;3740;50.700;7.184;2023-04-06T07:47:54;11.03;;;9.27;;
7398;SDS011;3740;50.700;7.184;2023-04-06T07:50:19;11.43;;;10.00;;
7398;SDS011;3740;50.700;7.184;2023-04-06T07:52:45;12.13;;;10.03;;
7398;SDS011;3740;50.700;7.184;2023-04-06T07:55:11;10.47;;;9.40;;
7398;SDS011;3740;50.700;7.184;2023-04-06T07:57:36;11.13;;;9.73;;
7398;SDS011;3740;50.700;7.184;2023-04-06T08:00:02;11.60;;;9.87;;
7398;SDS011;3740;50.700;7.184;2023-04-06T08:02:29;9.97;;;8.90;;
7398;SDS011;3740;50.700;7.184;2023-04-06T08:04:56;10.13;;;9.07;;
7398;SDS011;3740;50.700;7.184;2023-04-06T08:07:21;11.57;;;9.83;;
7398;SDS011;3740;50.700;7.184;2023-04-06T08:09:47;10.73;;;9.70;;
7398;SDS011;3740;50.700;7.184;2023-04-06T08:12:13;12.03;;;9.70;;
7398;SDS011;3740;50.700;7.184;2023-04-06T08:14:38;11.00;;;9.87;;
7398;SDS011;3740;50.700;7.184;2023-04-06T08:17:04;11.53;;;9.70;;
7398;SDS011;3740;50.700;7.184;2023-04-06T08:19:30;10.93;;;9.93;;
7398;SDS011;3740;50.700;7.184;2023-04-06T08:21:55;10.60;;;9.50;;
7398;SDS011;3740;50.700;7.184;2023-04-06T08:24:21;11.57;;;9.83;;
7398;SDS011;3740;50.700;7.184;2023-04-06T08:26:46;12.93;;;10.17;;
7398;SDS011;3740;50.700;7.184;2023-04-06T08:29:12;11.03;;;9.83;;
7398;SDS011;3740;50.700;7.184;2023-04-06T08:31:37;11.87;;;9.80;;
7398;SDS011;3740;50.700;7.184;2023-04-06T08:34:03;11.87;;;10.43;;
7398;SDS011;3740;50.700;7.184;2023-04-06T08:36:30;12.40;;;10.63;;
7398;SDS011;3740;50.700;7.184;2023-04-06T08:38:56;11.23;;;10.10;;
7398;SDS011;3740;50.700;7.184;2023-04-06T08:41:24;13.20;;;10.43;;
7398;SDS011;3740;50.700;7.184;2023-04-06T08:46:17;10.97;;;9.83;;
7398;SDS011;3740;50.700;7.184;2023-04-06T08:48:43;11.57;;;10.37;;
7398;SDS011;3740;50.700;7.184;2023-04-06T08:51:09;12.37;;;10.50;;
7398;SDS011;3740;50.700;7.184;2023-04-06T08:53:35;11.63;;;9.87;;
7398;SDS011;3740;50.700;7.184;2023-04-06T08:56:03;12.27;;;10.37;;
7398;SDS011;3740;50.700;7.184;2023-04-06T08:58:35;13.40;;;11.07;;
7398;SDS011;3740;50.700;7.184;2023-04-06T09:01:06;12.17;;;10.87;;
7398;SDS011;3740;50.700;7.184;2023-04-06T09:03:34;11.57;;;10.37;;
7398;SDS011;3740;50.700;7.184;2023-04-06T09:06:04;12.53;;;10.17;;
7398;SDS011;3740;50.700;7.184;2023-04-06T09:08:32;17.33;;;14.43;;
7398;SDS011;3740;50.700;7.184;2023-04-06T09:11:00;11.83;;;10.37;;
7398;SDS011;3740;50.700;7.184;2023-04-06T09:13:26;11.80;;;10.57;;
7398;SDS011;3740;50.700;7.184;2023-04-06T09:15:58;12.30;;;10.40;;
7398;SDS011;3740;50.700;7.184;2023-04-06T09:18:28;13.00;;;10.40;;
7398;SDS011;3740;50.700;7.184;2023-04-06T09:20:59;11.00;;;9.57;;
7398;SDS011;3740;50.700;7.184;2023-04-06T09:23:28;12.53;;;10.03;;
7398;SDS011;3740;50.700;7.184;2023-04-06T09:26:07;12.37;;;9.67;;
7398;SDS011;3740;50.700;7.184;2023-04-06T09:28:45;12.67;;;9.90;;
7398;SDS011;3740;50.700;7.184;2023-04-06T09:31:17;12.20;;;9.80;;
7398;SDS011;3740;50.700;7.184;2023-04-06T09:33:50;12.23;;;10.13;;
7398;SDS011;3740;50.700;7.184;2023-04-06T09:36:17;12.97;;;10.23;;
7398;SDS011;3740;50.700;7.184;2023-04-06T09:38:53;10.73;;;9.20;;
7398;SDS011;3740;50.700;7.184;2023-04-06T09:41:23;11.53;;;9.47;;
7398;SDS011;3740;50.700;7.184;2023-04-06T09:44:09;12.43;;;10.23;;
7398;SDS011;3740;50.700;7.184;2023-04-06T09:46:39;12.63;;;9.97;;
7398;SDS011;3740;50.700;7.184;2023-04-06T09:49:07;14.50;;;10.47;;
7398;SDS011;3740;50.700;7.184;2023-04-06T09:51:40;13.17;;;10.03;;
7398;SDS011;3740;50.700;7.184;2023-04-06T09:54:21;11.47;;;10.07;;
7398;SDS011;3740;50.700;7.184;2023-04-06T09:56:50;12.37;;;9.77;;
7398;SDS011;3740;50.700;7.184;2023-04-06T10:01:50;12.60;;;10.30;;
7398;SDS011;3740;50.700;7.184;2023-04-06T10:04:39;13.63;;;10.43;;
7398;SDS011;3740;50.700;7.184;2023-04-06T10:07:12;13.10;;;10.10;;
7398;SDS011;3740;50.700;7.184;2023-04-06T10:09:38;14.50;;;10.53;;
7398;SDS011;3740;50.700;7.184;2023-04-06T10:12:06;12.57;;;9.97;;
7398;SDS011;3740;50.700;7.184;2023-04-06T10:14:35;12.27;;;9.70;;
7398;SDS011;3740;50.700;7.184;2023-04-06T10:17:03;13.40;;;10.10;;
7398;SDS011;3740;50.700;7.184;2023-04-06T10:22:26;12.97;;;10.50;;
7398;SDS011;3740;50.700;7.184;2023-04-06T10:24:59;13.83;;;10.93;;
7398;SDS011;3740;50.700;7.184;2023-04-06T10:27:28;11.30;;;9.73;;
7398;SDS011;3740;50.700;7.184;2023-04-06T10:30:01;13.80;;;10.77;;
7398;SDS011;3740;50.700;7.184;2023-04-06T10:32:37;11.97;;;10.33;;
7398;SDS011;3740;50.700;7.184;2023-04-06T10:35:06;12.03;;;10.17;;
7398;SDS011;3740;50.700;7.184;2023-04-06T10:37:45;15.37;;;11.37;;
7398;SDS011;3740;50.700;7.184;2023-04-06T10:40:22;14.33;;;10.63;;
7398;SDS011;3740;50.700;7.184;2023-04-06T10:42:53;13.77;;;10.90;;
7398;SDS011;3740;50.700;7.184;2023-04-06T10:45:20;13.83;;;11.33;;
7398;SDS011;3740;50.700;7.184;2023-04-06T10:47:47;13.97;;;10.60;;
7398;SDS011;3740;50.700;7.184;2023-04-06T10:50:14;14.20;;;11.47;;
7398;SDS011;3740;50.700;7.184;2023-04-06T10:52:41;12.63;;;11.18;;
7398;SDS011;3740;50.700;7.184;2023-04-06T10:55:08;12.43;;;10.53;;
7398;SDS011;3740;50.700;7.184;2023-04-06T10:57:37;12.57;;;10.47;;
7398;SDS011;3740;50.700;7.184;2023-04-06T11:00:06;14.60;;;11.07;;
7398;SDS011;3740;50.700;7.184;2023-04-06T11:02:33;12.87;;;11.27;;
7398;SDS011;3740;50.700;7.184;2023-04-06T11:05:00;12.87;;;10.93;;
7398;SDS011;3740;50.700;7.184;2023-04-06T11:07:26;13.80;;;10.47;;
7398;SDS011;3740;50.700;7.184;2023-04-06T11:09:54;12.57;;;10.67;;
7398;SDS011;3740;50.700;7.184;2023-04-06T11:12:28;13.87;;;10.47;;
7398;SDS011;3740;50.700;7.184;2023-04-06T11:14:56;13.13;;;10.63;;
7398;SDS011;3740;50.700;7.184;2023-04-06T11:17:29;13.73;;;10.43;;
7398;SDS011;3740;50.700;7.184;2023-04-06T11:19:58;14.37;;;10.47;;
7398;SDS011;3740;50.700;7.184;2023-04-06T11:22:24;11.43;;;10.23;;
7398;SDS011;3740;50.700;7.184;2023-04-06T11:24:50;13.50;;;10.40;;
7398;SDS011;3740;50.700;7.184;2023-04-06T11:27:17;13.63;;;10.43;;
7398;SDS011;3740;50.700;7.184;2023-04-06T11:29:43;12.87;;;11.00;;
7398;SDS011;3740;50.700;7.184;2023-04-06T11:32:19;12.50;;;10.80;;
7398;SDS011;3740;50.700;7.184;2023-04-06T11:34:46;13.70;;;10.97;;
7398;SDS011;3740;50.700;7.184;2023-04-06T11:37:13;12.00;;;10.17;;
7398;SDS011;3740;50.700;7.184;2023-04-06T11:39:39;11.83;;;10.10;;
7398;SDS011;3740;50.700;7.184;2023-04-06T11:42:08;12.23;;;10.27;;
7398;SDS011;3740;50.700;7.184;2023-04-06T11:44:35;13.53;;;10.27;;
7398;SDS011;3740;50.700;7.184;2023-04-06T11:47:08;15.23;;;10.23;;
7398;SDS011;3740;50.700;7.184;2023-04-06T11:49:38;12.77;;;10.03;;
7398;SDS011;3740;50.700;7.184;2023-04-06T11:52:21;12.00;;;10.67;;
7398;SDS011;3740;50.700;7.184;2023-04-06T11:54:52;13.10;;;10.73;;
7398;SDS011;3740;50.700;7.184;2023-04-06T11:57:21;15.10;;;11.53;;
7398;SDS011;3740;50.700;7.184;2023-04-06T11:59:51;14.77;;;10.27;;
7398;SDS011;3740;50.700;7.184;2023-04-06T12:02:17;12.63;;;10.13;;
7398;SDS011;3740;50.700;7.184;2023-04-06T12:04:43;13.80;;;11.13;;
7398;SDS011;3740;50.700;7.184;2023-04-06T12:07:09;12.60;;;11.03;;
7398;SDS011;3740;50.700;7.184;2023-04-06T12:09:35;11.93;;;10.27;;
7398;SDS011;3740;50.700;7.184;2023-04-06T12:12:01;13.53;;;10.07;;
7398;SDS011;3740;50.700;7.184;2023-04-06T12:14:27;12.77;;;10.23;;
7398;SDS011;3740;50.700;7.184;2023-04-06T12:16:55;14.10;;;10.57;;
7398;SDS011;3740;50.700;7.184;2023-04-06T12:19:22;13.47;;;11.30;;
7398;SDS011;3740;50.700;7.184;2023-04-06T12:21:50;14.00;;;10.70;;
7398;SDS011;3740;50.700;7.184;2023-04-06T12:24:17;12.87;;;10.13;;
7398;SDS011;3740;50.700;7.184;2023-04-06T12:26:42;12.23;;;10.27;;
7398;SDS011;3740;50.700;7.184;2023-04-06T12:29:08;14.70;;;10.30;;
7398;SDS011;3740;50.700;7.184;2023-04-06T12:31:37;10.07;;;9.05;;
7398;SDS011;3740;50.700;7.184;2023-04-06T12:34:07;10.27;;;9.00;;
7398;SDS011;3740;50.700;7.184;2023-04-06T12:36:33;12.43;;;11.20;;
7398;SDS011;3740;50.700;7.184;2023-04-06T12:38:59;10.23;;;9.02;;
7398;SDS011;3740;50.700;7.184;2023-04-06T12:41:25;10.13;;;9.02;;
7398;SDS011;3740;50.700;7.184;2023-04-06T12:43:51;7.60;;;6.90;;
7398;SDS011;3740;50.700;7.184;2023-04-06T12:46:17;9.05;;;7.50;;
7398;SDS011;3740;50.700;7.184;2023-04-06T12:48:42;8.25;;;7.43;;
7398;SDS011;3740;50.700;7.184;2023-04-06T12:51:08;8.13;;;7.07;;
7398;SDS011;3740;50.700;7.184;2023-04-06T12:53:34;7.60;;;6.80;;
7398;SDS011;3740;50.700;7.184;2023-04-06T12:55:59;8.52;;;7.10;;
7398;SDS011;3740;50.700;7.184;2023-04-06T12:58:25;9.13;;;7.65;;
7398;SDS011;3740;50.700;7.184;2023-04-06T13:00:52;8.27;;;7.33;;
7398;SDS011;3740;50.700;7.184;2023-04-06T13:03:18;8.57;;;6.37;;
7398;SDS011;3740;50.700;7.184;2023-04-06T13:05:47;7.03;;;6.33;;
7398;SDS011;3740;50.700;7.184;2023-04-06T13:08:14;9.17;;;6.80;;
7398;SDS011;3740;50.700;7.184;2023-04-06T13:10:43;7.53;;;6.67;;
7398;SDS011;3740;50.700;7.184;2023-04-06T13:13:11;6.83;;;6.13;;
7398;SDS011;3740;50.700;7.184;2023-04-06T13:15:36;9.00;;;6.97;;
7398;SDS011;3740;50.700;7.184;2023-04-06T13:18:02;9.17;;;7.70;;
7398;SDS011;3740;50.700;7.184;2023-04-06T13:20:28;9.77;;;8.37;;
7398;SDS011;3740;50.700;7.184;2023-04-06T13:22:53;8.33;;;7.53;;
7398;SDS011;3740;50.700;7.184;2023-04-06T13:25:19;9.50;;;8.57;;
7398;SDS011;3740;50.700;7.184;2023-04-06T13:27:45;8.40;;;7.33;;
7398;SDS011;3740;50.700;7.184;2023-04-06T13:30:12;9.70;;;7.97;;
7398;SDS011;3740;50.700;7.184;2023-04-06T13:32:38;9.50;;;7.13;;
7398;SDS011;3740;50.700;7.184;2023-04-06T13:35:04;7.13;;;6.43;;
7398;SDS011;3740;50.700;7.184;2023-04-06T13:37:30;7.37;;;5.97;;
7398;SDS011;3740;50.700;7.184;2023-04-06T13:39:55;6.30;;;5.70;;
7398;SDS011;3740;50.700;7.184;2023-04-06T13:42:21;6.80;;;6.10;;
7398;SDS011;3740;50.700;7.184;2023-04-06T13:44:46;8.20;;;6.27;;
7398;SDS011;3740;50.700;7.184;2023-04-06T13:47:12;9.10;;;8.20;;
7398;SDS011;3740;50.700;7.184;2023-04-06T13:49:38;9.73;;;8.97;;
7398;SDS011;3740;50.700;7.184;2023-04-06T13:52:03;6.77;;;6.10;;
7398;SDS011;3740;50.700;7.184;2023-04-06T13:54:29;6.33;;;5.73;;
7398;SDS011;3740;50.700;7.184;2023-04-06T13:56:55;5.97;;;5.47;;
7398;SDS011;3740;50.700;7.184;2023-04-06T13:59:21;7.30;;;6.60;;
7398;SDS011;3740;50.700;7.184;2023-04-06T14:01:47;9.53;;;8.73;;
7398;SDS011;3740;50.700;7.184;2023-04-06T14:04:12;7.77;;;7.00;;
7398;SDS011;3740;50.700;7.184;2023-04-06T14:06:38;7.57;;;6.33;;
7398;SDS011;3740;50.700;7.184;2023-04-06T14:09:04;6.50;;;5.80;;
7398;SDS011;3740;50.700;7.184;2023-04-06T14:11:29;7.90;;;7.20;;
7398;SDS011;3740;50.700;7.184;2023-04-06T14:13:55;8.70;;;7.80;;
7398;SDS011;3740;50.700;7.184;2023-04-06T14:16:22;9.53;;;8.63;;
7398;SDS011;3740;50.700;7.184;2023-04-06T14:18:48;10.67;;;7.30;;
7398;SDS011;3740;50.700;7.184;2023-04-06T14:21:14;8.50;;;6.63;;
7398;SDS011;3740;50.700;7.184;2023-04-06T14:23:40;6.37;;;5.77;;
7398;SDS011;3740;50.700;7.184;2023-04-06T14:26:06;7.07;;;5.83;;
7398;SDS011;3740;50.700;7.184;2023-04-06T14:28:33;8.40;;;7.60;;
7398;SDS011;3740;50.700;7.184;2023-04-06T14:31:00;8.17;;;7.37;;
7398;SDS011;3740;50.700;7.184;2023-04-06T14:33:28;7.83;;;7.00;;
7398;SDS011;3740;50.700;7.184;2023-04-06T14:35:55;9.47;;;8.20;;
7398;SDS011;3740;50.700;7.184;2023-04-06T14:38:21;7.73;;;6.93;;
7398;SDS011;3740;50.700;7.184;2023-04-06T14:40:46;9.20;;;8.30;;
7398;SDS011;3740;50.700;7.184;2023-04-06T14:43:12;8.77;;;7.97;;
7398;SDS011;3740;50.700;7.184;2023-04-06T14:45:38;9.13;;;7.93;;
7398;SDS011;3740;50.700;7.184;2023-04-06T14:48:04;9.83;;;7.40;;
7398;SDS011;3740;50.700;7.184;2023-04-06T14:50:31;8.77;;;7.90;;
7398;SDS011;3740;50.700;7.184;2023-04-06T14:52:58;6.50;;;5.80;;
7398;SDS011;3740;50.700;7.184;2023-04-06T14:55:24;6.53;;;5.80;;
7398;SDS011;3740;50.700;7.184;2023-04-06T14:57:50;6.57;;;5.87;;
7398;SDS011;3740;50.700;7.184;2023-04-06T15:00:16;7.07;;;5.67;;
7398;SDS011;3740;50.700;7.184;2023-04-06T15:02:41;5.70;;;5.20;;
7398;SDS011;3740;50.700;7.184;2023-04-06T15:05:08;6.43;;;5.70;;
7398;SDS011;3740;50.700;7.184;2023-04-06T15:07:33;5.83;;;5.23;;